Time;durP1;ratioP1;P1;durP2;ratioP2;P2;SDS_P1;SDS_P2;PMS_P1;PMS_P2;Temp;Humidity;BMP_temperature;BMP_pressure;BME280_temperature;BME280_humidity;BME280_pressure;Samples;Min_cycle;Max_cycle;Signal;HPM_P1;HPM_P2
2023/08/23 00:00:37;;;;;;;4.57;3.27;;;;;;;;;;5031893;28;20040;-62
2023/08/23 00:03:02;;;;;;;4.83;4.43;;;;;;;;;;5031773;28;20009;-64
2023/08/23 00:05:27;;;;;;;7.07;3.63;;;;;;;;;;5032310;28;20451;-64
2023/08/23 00:07:53;;;;;;;7.20;5.35;;;;;;;;;;5032054;28;20053;-64
2023/08/23 00:10:18;;;;;;;6.70;5.75;;;;;;;;;;5032653;28;20472;-64
2023/08/23 00:12:43;;;;;;;17.27;4.97;;;;;;;;;;5031343;28;20047;-63
2023/08/23 00:15:08;;;;;;;12.17;5.50;;;;;;;;;;5032942;28;20795;-63
2023/08/23 00:17:34;;;;;;;5.60;5.10;;;;;;;;;;5031296;28;20044;-64
2023/08/23 00:19:59;;;;;;;4.82;4.43;;;;;;;;;;5032475;28;20056;-64
2023/08/23 00:22:24;;;;;;;5.70;5.28;;;;;;;;;;5031450;28;20037;-64
2023/08/23 00:24:49;;;;;;;5.50;4.97;;;;;;;;;;5032973;28;20048;-63
2023/08/23 00:27:14;;;;;;;5.60;4.80;;;;;;;;;;5030840;28;20041;-63
2023/08/23 00:29:40;;;;;;;8.82;4.07;;;;;;;;;;5032528;28;20065;-63
2023/08/23 00:32:05;;;;;;;6.53;3.92;;;;;;;;;;5031329;28;20044;-63
2023/08/23 00:34:30;;;;;;;4.63;4.22;;;;;;;;;;5032218;28;20025;-64
2023/08/23 00:36:55;;;;;;;6.23;5.63;;;;;;;;;;5031202;28;20037;-64
2023/08/23 00:39:21;;;;;;;3.93;3.57;;;;;;;;;;5032607;28;20428;-64
2023/08/23 00:41:46;;;;;;;5.32;4.85;;;;;;;;;;5030893;28;20040;-64
2023/08/23 00:44:12;;;;;;;22.57;5.33;;;;;;;;;;5032009;28;20025;-64
2023/08/23 00:46:38;;;;;;;4.10;3.70;;;;;;;;;;5030870;28;20042;-63
2023/08/23 00:49:03;;;;;;;6.22;4.95;;;;;;;;;;5029308;28;20440;-63
2023/08/23 00:51:29;;;;;;;7.07;6.38;;;;;;;;;;5010625;28;20038;-63
2023/08/23 00:53:54;;;;;;;7.53;6.35;;;;;;;;;;5012545;28;20022;-63
2023/08/23 00:56:20;;;;;;;5.43;4.93;;;;;;;;;;5029285;28;20041;-63
2023/08/23 00:58:45;;;;;;;9.20;6.30;;;;;;;;;;5032169;28;20455;-64
2023/08/23 01:01:10;;;;;;;7.18;6.00;;;;;;;;;;5030679;28;20034;-63
2023/08/23 01:03:35;;;;;;;5.78;5.30;;;;;;;;;;5030846;28;20029;-63
2023/08/23 01:06:19;;;;;;;4.60;3.03;;;;;;;;;;5030188;28;20079;-62
2023/08/23 01:08:47;;;;;;;5.32;4.82;;;;;;;;;;5032146;28;20014;-62
2023/08/23 01:11:31;;;;;;;19.23;2.90;;;;;;;;;;5030434;28;20041;-62
2023/08/23 01:14:04;;;;;;;3.40;3.10;;;;;;;;;;5031913;28;20634;-62
2023/08/23 01:16:31;;;;;;;3.05;2.85;;;;;;;;;;5030227;28;20037;-62
2023/08/23 01:18:57;;;;;;;7.35;3.78;;;;;;;;;;5031275;28;20498;-63
2023/08/23 01:21:26;;;;;;;17.83;3.42;;;;;;;;;;5029870;28;20587;-62
2023/08/23 01:23:52;;;;;;;6.30;4.75;;;;;;;;;;5031847;28;20021;-62
2023/08/23 01:26:17;;;;;;;23.50;4.80;;;;;;;;;;5029685;28;20037;-63
2023/08/23 01:28:42;;;;;;;5.50;5.00;;;;;;;;;;5031544;28;20013;-63
2023/08/23 01:31:09;;;;;;;4.83;3.90;;;;;;;;;;5030367;28;20041;-63
2023/08/23 01:33:37;;;;;;;7.88;5.80;;;;;;;;;;5031106;28;20021;-63
2023/08/23 01:36:08;;;;;;;5.25;4.85;;;;;;;;;;5029840;28;20160;-63
2023/08/23 01:38:34;;;;;;;5.22;4.72;;;;;;;;;;5031475;28;20014;-63
2023/08/23 01:40:59;;;;;;;9.55;5.78;;;;;;;;;;5029993;28;20033;-64
2023/08/23 01:43:24;;;;;;;5.28;4.82;;;;;;;;;;5030822;28;20388;-65
2023/08/23 01:45:49;;;;;;;6.80;4.67;;;;;;;;;;5030007;28;20500;-62
2023/08/23 01:48:15;;;;;;;4.70;4.27;;;;;;;;;;5031457;28;20017;-63
2023/08/23 01:50:40;;;;;;;7.10;6.28;;;;;;;;;;5028657;28;20442;-63
2023/08/23 01:53:05;;;;;;;5.68;4.10;;;;;;;;;;5031153;28;20040;-64
2023/08/23 01:55:30;;;;;;;4.72;3.55;;;;;;;;;;5029693;28;20088;-60
2023/08/23 01:57:55;;;;;;;5.47;3.63;;;;;;;;;;5030787;28;20026;-64
2023/08/23 02:00:21;;;;;;;3.70;3.30;;;;;;;;;;5030908;28;20053;-64
2023/08/23 02:02:46;;;;;;;4.50;4.20;;;;;;;;;;5029410;28;20476;-64
2023/08/23 02:05:11;;;;;;;5.10;4.63;;;;;;;;;;5030803;28;20443;-64
2023/08/23 02:07:36;;;;;;;5.13;4.63;;;;;;;;;;5029462;28;20500;-63
2023/08/23 02:10:01;;;;;;;4.93;4.00;;;;;;;;;;5030707;28;20121;-64
2023/08/23 02:12:26;;;;;;;6.20;4.80;;;;;;;;;;5028673;28;20044;-64
2023/08/23 02:14:52;;;;;;;8.20;5.20;;;;;;;;;;5030845;28;20416;-64
2023/08/23 02:17:17;;;;;;;8.87;6.40;;;;;;;;;;5028508;28;20365;-63
2023/08/23 02:19:42;;;;;;;11.03;6.80;;;;;;;;;;5030013;28;20941;-64
2023/08/23 02:22:07;;;;;;;7.28;6.57;;;;;;;;;;5029325;28;20037;-65
2023/08/23 02:24:32;;;;;;;8.77;7.17;;;;;;;;;;5030526;28;20546;-62
2023/08/23 02:26:57;;;;;;;7.10;6.50;;;;;;;;;;5027172;28;20044;-65
2023/08/23 02:29:23;;;;;;;12.18;7.25;;;;;;;;;;5030077;28;20463;-65
2023/08/23 02:31:48;;;;;;;9.57;6.87;;;;;;;;;;5029393;28;20041;-65
2023/08/23 02:34:13;;;;;;;11.57;7.33;;;;;;;;;;5030115;28;20503;-65
2023/08/23 02:36:38;;;;;;;8.63;6.53;;;;;;;;;;5028962;28;20424;-65
2023/08/23 02:39:03;;;;;;;5.40;4.47;;;;;;;;;;5030532;28;20048;-65
2023/08/23 02:41:29;;;;;;;5.72;2.92;;;;;;;;;;5028305;28;20120;-66
2023/08/23 02:43:54;;;;;;;5.32;4.45;;;;;;;;;;5030766;28;20087;-65
2023/08/23 02:46:19;;;;;;;6.57;5.75;;;;;;;;;;5028599;28;20037;-66
2023/08/23 02:48:44;;;;;;;10.80;7.57;;;;;;;;;;5029810;28;20076;-65
2023/08/23 02:51:09;;;;;;;7.77;7.03;;;;;;;;;;5029128;28;20034;-65
2023/08/23 02:53:34;;;;;;;9.87;8.83;;;;;;;;;;5030150;28;20430;-65
2023/08/23 02:56:00;;;;;;;14.80;8.37;;;;;;;;;;5028717;28;20400;-63
2023/08/23 02:58:25;;;;;;;9.88;8.05;;;;;;;;;;5030184;28;20466;-64
2023/08/23 03:00:50;;;;;;;9.05;7.65;;;;;;;;;;5028471;28;20042;-63
2023/08/23 03:03:15;;;;;;;16.70;3.57;;;;;;;;;;5030340;28;20029;-65
2023/08/23 03:05:40;;;;;;;31.17;6.18;;;;;;;;;;5028685;28;20435;-63
2023/08/23 03:08:05;;;;;;;22.60;4.57;;;;;;;;;;5029963;28;20030;-64
2023/08/23 03:10:31;;;;;;;70.35;8.10;;;;;;;;;;5028909;28;20022;-61
2023/08/23 03:12:56;;;;;;;19.57;5.97;;;;;;;;;;5029018;28;20056;-63
2023/08/23 03:15:21;;;;;;;40.17;6.23;;;;;;;;;;5029861;28;20483;-63
2023/08/23 03:17:46;;;;;;;41.40;5.13;;;;;;;;;;5028320;28;20475;-63
2023/08/23 03:20:11;;;;;;;17.13;5.60;;;;;;;;;;5030153;28;20459;-64
2023/08/23 03:22:37;;;;;;;8.63;6.20;;;;;;;;;;5028244;28;20449;-64
2023/08/23 03:25:02;;;;;;;7.07;6.40;;;;;;;;;;5029893;28;20066;-64
2023/08/23 03:27:27;;;;;;;11.03;7.23;;;;;;;;;;5028593;28;20034;-64
2023/08/23 03:29:52;;;;;;;11.50;7.60;;;;;;;;;;5032955;28;20479;-63
2023/08/23 03:32:19;;;;;;;7.87;6.37;;;;;;;;;;5031854;28;20088;-64
2023/08/23 03:34:44;;;;;;;9.15;7.88;;;;;;;;;;5033671;28;20992;-63
2023/08/23 03:37:09;;;;;;;10.90;7.40;;;;;;;;;;5032426;28;20045;-64
2023/08/23 03:39:34;;;;;;;10.32;8.80;;;;;;;;;;5033120;28;20377;-64
2023/08/23 03:41:59;;;;;;;11.50;7.97;;;;;;;;;;5032169;28;20106;-64
2023/08/23 03:44:25;;;;;;;10.45;8.05;;;;;;;;;;5033458;28;20381;-64
2023/08/23 03:46:50;;;;;;;12.05;8.32;;;;;;;;;;5032089;28;20136;-64
2023/08/23 03:49:15;;;;;;;9.23;6.30;;;;;;;;;;5033340;28;20018;-63
2023/08/23 03:51:40;;;;;;;15.68;5.18;;;;;;;;;;5031536;28;20719;-63
2023/08/23 03:54:05;;;;;;;13.20;5.72;;;;;;;;;;5033198;28;20030;-64
2023/08/23 03:56:31;;;;;;;7.93;4.87;;;;;;;;;;5031356;28;20037;-63
2023/08/23 03:58:57;;;;;;;18.75;5.70;;;;;;;;;;5033611;28;20554;-64
2023/08/23 04:01:22;;;;;;;8.95;5.95;;;;;;;;;;5031927;28;20029;-64
2023/08/23 04:03:47;;;;;;;11.90;5.55;;;;;;;;;;5033114;28;20552;-65
2023/08/23 04:06:12;;;;;;;5.82;5.32;;;;;;;;;;5031269;28;20128;-64
2023/08/23 04:08:37;;;;;;;8.27;5.53;;;;;;;;;;5032304;28;20029;-64
2023/08/23 04:11:03;;;;;;;9.93;7.27;;;;;;;;;;5031437;28;20452;-64
2023/08/23 04:13:28;;;;;;;9.33;8.40;;;;;;;;;;5032624;28;20617;-65
2023/08/23 04:15:53;;;;;;;9.80;8.63;;;;;;;;;;5031521;28;20460;-66
2023/08/23 04:18:18;;;;;;;11.43;10.40;;;;;;;;;;5032321;28;20557;-65
2023/08/23 04:20:43;;;;;;;8.13;7.33;;;;;;;;;;5031506;28;20013;-65
2023/08/23 04:23:09;;;;;;;14.93;11.17;;;;;;;;;;5033061;28;20048;-65
2023/08/23 04:25:34;;;;;;;13.33;10.73;;;;;;;;;;5030905;28;20491;-65
2023/08/23 04:27:59;;;;;;;13.53;12.17;;;;;;;;;;5032886;28;20427;-65
2023/08/23 04:30:24;;;;;;;15.83;11.03;;;;;;;;;;5032455;28;20484;-65
2023/08/23 04:32:49;;;;;;;13.57;9.88;;;;;;;;;;5030701;28;20072;-65
2023/08/23 04:35:14;;;;;;;9.73;8.82;;;;;;;;;;5032638;28;20475;-65
2023/08/23 04:37:39;;;;;;;10.53;9.53;;;;;;;;;;5030899;28;20041;-65
2023/08/23 04:40:07;;;;;;;9.88;8.88;;;;;;;;;;5031531;28;20013;-65
2023/08/23 04:42:32;;;;;;;9.60;8.60;;;;;;;;;;5030745;28;20025;-65
2023/08/23 04:45:00;;;;;;;15.45;10.55;;;;;;;;;;5032390;28;20441;-66
2023/08/23 04:47:25;;;;;;;11.60;10.47;;;;;;;;;;5030594;28;20497;-66
2023/08/23 04:49:51;;;;;;;10.40;9.30;;;;;;;;;;5032256;28;20523;-66
2023/08/23 04:52:16;;;;;;;12.70;8.37;;;;;;;;;;5030864;28;20491;-65
2023/08/23 04:54:41;;;;;;;12.57;9.73;;;;;;;;;;5031601;28;20017;-66
2023/08/23 04:57:06;;;;;;;9.77;8.77;;;;;;;;;;5030724;28;20104;-66
2023/08/23 04:59:31;;;;;;;8.43;7.50;;;;;;;;;;5032003;28;20100;-65
2023/08/23 05:01:56;;;;;;;7.57;6.63;;;;;;;;;;5030399;28;20095;-64
2023/08/23 05:04:23;;;;;;;9.27;7.28;;;;;;;;;;5031734;28;20325;-64
2023/08/23 05:06:48;;;;;;;5.97;3.40;;;;;;;;;;5030820;28;20437;-65
2023/08/23 05:09:13;;;;;;;5.53;4.17;;;;;;;;;;5031833;28;20053;-64
2023/08/23 05:11:38;;;;;;;8.43;7.60;;;;;;;;;;5030077;28;20038;-65
2023/08/23 05:14:05;;;;;;;11.55;9.52;;;;;;;;;;5031869;28;20101;-64
2023/08/23 05:16:30;;;;;;;8.88;8.07;;;;;;;;;;5029693;28;20040;-64
2023/08/23 05:18:55;;;;;;;9.45;8.60;;;;;;;;;;5031411;28;20488;-64
2023/08/23 05:21:20;;;;;;;15.80;10.77;;;;;;;;;;5029987;28;20044;-64
2023/08/23 05:23:45;;;;;;;10.73;8.47;;;;;;;;;;5031417;28;20028;-64
2023/08/23 05:26:10;;;;;;;11.18;9.93;;;;;;;;;;5030464;28;20033;-63
2023/08/23 05:28:35;;;;;;;8.85;8.05;;;;;;;;;;5031326;28;20072;-63
2023/08/23 05:31:02;;;;;;;11.60;10.10;;;;;;;;;;5030183;28;20476;-63
2023/08/23 05:33:27;;;;;;;11.50;10.15;;;;;;;;;;5029615;28;20384;-64
2023/08/23 05:35:53;;;;;;;10.23;9.13;;;;;;;;;;5030070;28;20026;-63
2023/08/23 05:38:20;;;;;;;11.73;10.50;;;;;;;;;;5031020;28;20454;-64
2023/08/23 05:40:45;;;;;;;13.60;11.60;;;;;;;;;;5029918;28;20032;-63
2023/08/23 05:43:10;;;;;;;11.68;10.00;;;;;;;;;;5029026;28;20100;-63
2023/08/23 05:45:36;;;;;;;12.75;11.45;;;;;;;;;;5027561;28;20029;-64
2023/08/23 05:48:01;;;;;;;13.63;12.23;;;;;;;;;;5030929;28;20495;-65
2023/08/23 05:50:27;;;;;;;22.80;15.65;;;;;;;;;;5030954;28;20432;-65
2023/08/23 05:52:52;;;;;;;24.88;18.65;;;;;;;;;;5026825;28;20045;-65
2023/08/23 05:55:17;;;;;;;21.15;18.92;;;;;;;;;;5030557;28;20470;-62
2023/08/23 05:57:42;;;;;;;23.65;19.00;;;;;;;;;;5029444;28;20079;-62
2023/08/23 06:00:09;;;;;;;22.92;19.00;;;;;;;;;;5030281;28;20092;-65
2023/08/23 06:02:34;;;;;;;30.60;25.67;;;;;;;;;;5028528;28;20571;-61
2023/08/23 06:04:59;;;;;;;35.28;28.38;;;;;;;;;;5030140;28;20025;-61
2023/08/23 06:07:24;;;;;;;30.27;25.60;;;;;;;;;;5028505;28;20599;-61
2023/08/23 06:09:49;;;;;;;31.88;26.85;;;;;;;;;;5029913;28;20029;-61
2023/08/23 06:12:15;;;;;;;26.23;21.88;;;;;;;;;;5028972;28;20041;-61
2023/08/23 06:14:40;;;;;;;37.05;24.67;;;;;;;;;;5030058;28;20029;-61
2023/08/23 06:17:06;;;;;;;31.07;25.60;;;;;;;;;;5028646;28;20052;-61
2023/08/23 06:19:31;;;;;;;35.83;26.45;;;;;;;;;;5029756;28;20472;-61
2023/08/23 06:21:57;;;;;;;31.38;28.02;;;;;;;;;;5028844;28;20034;-61
2023/08/23 06:24:22;;;;;;;31.33;27.35;;;;;;;;;;5030035;28;20018;-61
2023/08/23 06:26:49;;;;;;;33.00;26.03;;;;;;;;;;5028909;28;20042;-61
2023/08/23 06:29:15;;;;;;;38.85;27.25;;;;;;;;;;5030268;28;21006;-61
2023/08/23 06:31:40;;;;;;;33.93;28.10;;;;;;;;;;5027015;28;20049;-61
2023/08/23 06:34:05;;;;;;;31.27;25.97;;;;;;;;;;5029599;28;20025;-61
2023/08/23 06:36:30;;;;;;;35.03;28.17;;;;;;;;;;5027981;28;20051;-61
2023/08/23 06:39:38;;;;;;;38.65;29.75;;;;;;;;;;5128082;27;20139;-60
2023/08/23 06:42:03;;;;;;;32.20;27.83;;;;;;;;;;5086987;27;20071;-60
2023/08/23 06:44:29;;;;;;;40.15;28.15;;;;;;;;;;5067059;28;20621;-60
2023/08/23 06:46:54;;;;;;;32.47;25.33;;;;;;;;;;5077937;28;20456;-61
2023/08/23 06:49:20;;;;;;;28.33;25.27;;;;;;;;;;5086718;28;20047;-60
2023/08/23 06:51:45;;;;;;;34.53;26.97;;;;;;;;;;5085917;28;20051;-61
2023/08/23 06:54:10;;;;;;;36.13;25.27;;;;;;;;;;5086990;28;20089;-61
2023/08/23 06:56:35;;;;;;;28.25;25.15;;;;;;;;;;5084169;28;20075;-62
2023/08/23 06:59:00;;;;;;;26.93;23.13;;;;;;;;;;5079314;28;20537;-61
2023/08/23 07:01:25;;;;;;;24.17;19.98;;;;;;;;;;5085574;28;20207;-60
2023/08/23 07:03:50;;;;;;;25.03;20.60;;;;;;;;;;5087384;28;20019;-61
2023/08/23 07:06:16;;;;;;;22.23;19.07;;;;;;;;;;5085540;28;20060;-61
2023/08/23 07:08:41;;;;;;;24.65;20.55;;;;;;;;;;5087079;28;20624;-61
2023/08/23 07:11:07;;;;;;;24.05;18.10;;;;;;;;;;5068211;28;20051;-60
2023/08/23 07:13:34;;;;;;;19.30;17.33;;;;;;;;;;5066702;28;20024;-60
2023/08/23 07:15:59;;;;;;;21.50;17.25;;;;;;;;;;5064133;28;20504;-60
2023/08/23 07:18:24;;;;;;;30.03;16.63;;;;;;;;;;5065885;28;20100;-60
2023/08/23 07:20:49;;;;;;;25.52;18.73;;;;;;;;;;5065965;28;20532;-60
2023/08/23 07:23:15;;;;;;;24.13;16.20;;;;;;;;;;5067014;28;20021;-61
2023/08/23 07:25:42;;;;;;;21.60;15.65;;;;;;;;;;5065264;28;20032;-61
2023/08/23 07:28:07;;;;;;;18.35;13.85;;;;;;;;;;5067006;28;20057;-61
2023/08/23 07:30:32;;;;;;;17.77;15.10;;;;;;;;;;5064840;28;20094;-60
2023/08/23 07:32:57;;;;;;;14.65;13.10;;;;;;;;;;5066896;28;20032;-61
2023/08/23 07:35:23;;;;;;;16.47;14.50;;;;;;;;;;5066517;28;20138;-61
2023/08/23 07:37:48;;;;;;;20.70;14.37;;;;;;;;;;5064586;28;20126;-61
2023/08/23 07:40:13;;;;;;;17.53;12.93;;;;;;;;;;5066759;28;20021;-61
2023/08/23 07:42:39;;;;;;;18.57;13.57;;;;;;;;;;5064906;28;20540;-62
2023/08/23 07:45:05;;;;;;;12.15;10.93;;;;;;;;;;5066473;28;20020;-60
2023/08/23 07:47:30;;;;;;;18.50;11.60;;;;;;;;;;5064645;28;20153;-61
2023/08/23 07:49:55;;;;;;;20.10;13.13;;;;;;;;;;5057900;28;20025;-61
2023/08/23 07:52:21;;;;;;;17.02;10.50;;;;;;;;;;5051083;28;20451;-61
2023/08/23 07:54:46;;;;;;;12.18;10.07;;;;;;;;;;5052971;28;20118;-61
2023/08/23 07:57:11;;;;;;;11.53;9.30;;;;;;;;;;5051598;28;20496;-61
2023/08/23 07:59:36;;;;;;;15.60;11.20;;;;;;;;;;5052603;28;20067;-61
2023/08/23 08:02:02;;;;;;;18.47;11.17;;;;;;;;;;5051680;28;20452;-61
2023/08/23 08:04:29;;;;;;;11.47;8.00;;;;;;;;;;5052782;28;20017;-61
2023/08/23 08:06:54;;;;;;;10.93;9.85;;;;;;;;;;5051268;28;20458;-61
2023/08/23 08:09:21;;;;;;;13.63;8.50;;;;;;;;;;5052539;28;20104;-61
2023/08/23 08:11:46;;;;;;;10.73;9.52;;;;;;;;;;5051414;28;20048;-61
2023/08/23 08:14:11;;;;;;;9.87;7.30;;;;;;;;;;5052607;28;20017;-61
2023/08/23 08:16:36;;;;;;;18.05;9.20;;;;;;;;;;5051035;28;20539;-65
2023/08/23 08:19:01;;;;;;;20.02;8.77;;;;;;;;;;5052676;28;20052;-61
2023/08/23 08:21:26;;;;;;;10.03;7.10;;;;;;;;;;5050650;28;20486;-61
2023/08/23 08:23:52;;;;;;;11.75;8.48;;;;;;;;;;5053030;28;20025;-61
2023/08/23 08:26:17;;;;;;;7.67;6.83;;;;;;;;;;5050904;28;20021;-61
2023/08/23 08:28:44;;;;;;;13.50;6.80;;;;;;;;;;5052233;28;20021;-61
2023/08/23 08:31:09;;;;;;;7.78;6.32;;;;;;;;;;5051122;28;20053;-61
2023/08/23 08:33:35;;;;;;;8.30;6.40;;;;;;;;;;5052470;28;20017;-62
2023/08/23 08:36:00;;;;;;;8.23;6.00;;;;;;;;;;5050753;28;20029;-61
2023/08/23 08:38:25;;;;;;;7.70;5.73;;;;;;;;;;5051743;28;20037;-61
2023/08/23 08:40:50;;;;;;;7.97;6.47;;;;;;;;;;5051027;28;20447;-61
2023/08/23 08:43:17;;;;;;;13.63;8.57;;;;;;;;;;5051979;28;20029;-61
2023/08/23 08:45:42;;;;;;;10.32;9.02;;;;;;;;;;5050644;28;20984;-61
2023/08/23 08:48:07;;;;;;;14.03;8.67;;;;;;;;;;5052212;28;20028;-61
2023/08/23 08:50:32;;;;;;;6.43;4.47;;;;;;;;;;5050250;28;20163;-60
2023/08/23 08:52:59;;;;;;;9.68;7.10;;;;;;;;;;5052341;28;20025;-61
2023/08/23 08:55:24;;;;;;;11.70;8.13;;;;;;;;;;5051556;28;20032;-61
2023/08/23 08:57:52;;;;;;;9.20;6.18;;;;;;;;;;5050250;28;20036;-61
2023/08/23 09:00:18;;;;;;;10.50;7.65;;;;;;;;;;5051610;28;20456;-61
2023/08/23 09:02:44;;;;;;;10.75;6.38;;;;;;;;;;5049623;28;20029;-61
2023/08/23 09:05:09;;;;;;;8.27;6.97;;;;;;;;;;5051480;28;20013;-61
2023/08/23 09:07:34;;;;;;;8.52;6.32;;;;;;;;;;5050142;28;20029;-61
2023/08/23 09:09:59;;;;;;;9.80;7.27;;;;;;;;;;5051710;28;20100;-61
2023/08/23 09:12:24;;;;;;;15.73;5.03;;;;;;;;;;5050243;28;20052;-61
2023/08/23 09:14:50;;;;;;;8.97;6.03;;;;;;;;;;5051204;28;20056;-61
2023/08/23 09:17:15;;;;;;;14.23;5.95;;;;;;;;;;5050162;28;20091;-61
2023/08/23 09:19:40;;;;;;;8.13;5.97;;;;;;;;;;5051418;28;20013;-61
2023/08/23 09:22:05;;;;;;;9.85;6.80;;;;;;;;;;5049736;28;20451;-62
2023/08/23 09:24:31;;;;;;;11.60;6.10;;;;;;;;;;5051543;28;20460;-61
2023/08/23 09:26:56;;;;;;;8.20;6.65;;;;;;;;;;5050083;28;21060;-61
2023/08/23 09:29:23;;;;;;;13.63;7.40;;;;;;;;;;5050647;28;20032;-61
2023/08/23 09:31:48;;;;;;;7.10;5.63;;;;;;;;;;5049979;28;20036;-61
2023/08/23 09:34:14;;;;;;;12.23;5.53;;;;;;;;;;5051334;28;20103;-61
2023/08/23 09:36:42;;;;;;;8.10;6.03;;;;;;;;;;5049410;28;20041;-61
2023/08/23 09:39:09;;;;;;;5.93;5.00;;;;;;;;;;5050872;28;20045;-61
2023/08/23 09:41:39;;;;;;;10.18;5.82;;;;;;;;;;5049632;28;20091;-61
2023/08/23 09:44:04;;;;;;;5.65;4.50;;;;;;;;;;5051171;28;20021;-61
2023/08/23 09:46:32;;;;;;;7.57;6.10;;;;;;;;;;5049529;28;20044;-61
2023/08/23 09:48:57;;;;;;;;;;;;;;;;;;5051659;28;20100;-61
2023/08/23 09:51:24;;;;;;;9.93;6.43;;;;;;;;;;5049043;28;20099;-61
2023/08/23 09:53:51;;;;;;;7.93;5.97;;;;;;;;;;5051086;28;20013;-61
2023/08/23 09:56:16;;;;;;;6.72;5.95;;;;;;;;;;5049531;28;20031;-62
2023/08/23 09:58:42;;;;;;;7.07;5.70;;;;;;;;;;5050591;28;20383;-62
2023/08/23 10:01:08;;;;;;;7.35;5.30;;;;;;;;;;5049545;28;20091;-61
2023/08/23 10:03:33;;;;;;;6.10;5.50;;;;;;;;;;5050478;28;20024;-62
2023/08/23 10:05:58;;;;;;;15.93;5.97;;;;;;;;;;5049098;28;20061;-62
2023/08/23 10:08:24;;;;;;;8.68;6.68;;;;;;;;;;5050453;28;20013;-62
2023/08/23 10:10:53;;;;;;;7.65;5.20;;;;;;;;;;5049497;28;20033;-62
2023/08/23 10:13:19;;;;;;;7.43;6.22;;;;;;;;;;5049807;28;20017;-61
2023/08/23 10:15:44;;;;;;;8.80;5.90;;;;;;;;;;5049107;28;20021;-62
2023/08/23 10:18:11;;;;;;;6.57;4.73;;;;;;;;;;5050878;28;20032;-62
2023/08/23 10:20:37;;;;;;;7.07;5.22;;;;;;;;;;5048702;28;20444;-62
2023/08/23 10:23:10;;;;;;;8.02;6.20;;;;;;;;;;5049118;28;20025;-62
2023/08/23 10:25:36;;;;;;;8.73;6.07;;;;;;;;;;5049160;28;20104;-61
2023/08/23 10:28:03;;;;;;;3.50;2.88;;;;;;;;;;5050344;28;20056;-61
2023/08/23 10:30:29;;;;;;;6.83;2.70;;;;;;;;;;5050229;28;20384;-62
2023/08/23 10:32:55;;;;;;;4.67;4.03;;;;;;;;;;5048857;28;20044;-62
2023/08/23 10:35:23;;;;;;;3.15;2.85;;;;;;;;;;5050205;28;20455;-61
2023/08/23 10:37:48;;;;;;;4.10;3.70;;;;;;;;;;5056749;28;20059;-66
2023/08/23 10:40:17;;;;;;;6.57;3.77;;;;;;;;;;5069572;28;20024;-62
2023/08/23 10:42:42;;;;;;;4.63;3.50;;;;;;;;;;5068032;28;20043;-62
2023/08/23 10:45:09;;;;;;;6.03;2.88;;;;;;;;;;5070468;28;20013;-61
2023/08/23 10:47:35;;;;;;;7.72;3.80;;;;;;;;;;5068082;28;20041;-62
2023/08/23 10:50:02;;;;;;;3.10;2.50;;;;;;;;;;5069955;28;20012;-61
2023/08/23 10:52:27;;;;;;;4.93;3.70;;;;;;;;;;5068367;28;20392;-62
2023/08/23 10:54:53;;;;;;;5.53;3.00;;;;;;;;;;5069954;28;20027;-61
2023/08/23 10:57:18;;;;;;;3.13;2.70;;;;;;;;;;5051346;28;20037;-62
2023/08/23 10:59:43;;;;;;;5.17;3.43;;;;;;;;;;5050122;28;20498;-61
2023/08/23 11:02:08;;;;;;;5.85;4.05;;;;;;;;;;5050675;28;20029;-61
2023/08/23 11:04:34;;;;;;;3.87;3.50;;;;;;;;;;5066820;28;20021;-62
2023/08/23 11:06:59;;;;;;;4.28;3.53;;;;;;;;;;5068823;28;20033;-61
2023/08/23 11:09:24;;;;;;;10.47;3.03;;;;;;;;;;5069672;28;20025;-62
2023/08/23 11:11:49;;;;;;;6.43;2.53;;;;;;;;;;5068054;28;20044;-61
2023/08/23 11:14:14;;;;;;;6.03;3.30;;;;;;;;;;5069381;28;20438;-61
2023/08/23 11:16:40;;;;;;;5.13;3.73;;;;;;;;;;5067083;28;20436;-61
2023/08/23 11:19:08;;;;;;;4.72;3.45;;;;;;;;;;5068678;28;20546;-61
2023/08/23 11:21:33;;;;;;;11.13;2.92;;;;;;;;;;5066710;28;20755;-62
2023/08/23 11:24:03;;;;;;;3.28;2.20;;;;;;;;;;5059559;28;20025;-62
2023/08/23 11:26:29;;;;;;;3.60;1.92;;;;;;;;;;5064650;28;20582;-62
2023/08/23 11:28:54;;;;;;;3.63;2.70;;;;;;;;;;5072406;28;20116;-62
2023/08/23 11:31:21;;;;;;;19.63;3.70;;;;;;;;;;5071669;28;20055;-62
2023/08/23 11:33:46;;;;;;;24.15;2.83;;;;;;;;;;5073281;28;20020;-61
2023/08/23 11:36:11;;;;;;;2.80;2.00;;;;;;;;;;5072220;28;20484;-62
2023/08/23 11:38:36;;;;;;;6.17;3.33;;;;;;;;;;5071367;28;20800;-61
2023/08/23 11:41:01;;;;;;;5.07;2.60;;;;;;;;;;5051598;28;20033;-61
2023/08/23 11:43:27;;;;;;;5.70;1.80;;;;;;;;;;5064809;28;20465;-61
2023/08/23 11:45:53;;;;;;;4.13;2.58;;;;;;;;;;5070754;28;20044;-61
2023/08/23 11:48:18;;;;;;;7.05;2.28;;;;;;;;;;5067286;28;20031;-61
2023/08/23 11:50:44;;;;;;;3.80;2.27;;;;;;;;;;5051620;28;20103;-61
2023/08/23 11:53:09;;;;;;;4.80;1.80;;;;;;;;;;5052943;28;20440;-62
2023/08/23 11:55:34;;;;;;;10.48;2.33;;;;;;;;;;5051183;28;20028;-61
2023/08/23 11:57:59;;;;;;;2.28;2.00;;;;;;;;;;5053029;28;20044;-61
2023/08/23 12:00:25;;;;;;;1.80;1.70;;;;;;;;;;5052988;28;20357;-61
2023/08/23 12:02:50;;;;;;;4.68;1.73;;;;;;;;;;5051166;28;20033;-62
2023/08/23 12:05:16;;;;;;;3.50;1.47;;;;;;;;;;5059871;28;20020;-61
2023/08/23 12:07:41;;;;;;;2.42;1.67;;;;;;;;;;5060063;28;20478;-61
2023/08/23 12:10:09;;;;;;;7.38;3.78;;;;;;;;;;5062638;28;20045;-62
2023/08/23 12:12:35;;;;;;;4.18;2.92;;;;;;;;;;5055563;28;20075;-61
2023/08/23 12:15:01;;;;;;;8.52;4.25;;;;;;;;;;5058608;28;20414;-62
2023/08/23 12:17:26;;;;;;;2.38;1.48;;;;;;;;;;5049282;28;20566;-62
2023/08/23 12:19:52;;;;;;;3.22;2.17;;;;;;;;;;5052035;28;20015;-64
2023/08/23 12:22:17;;;;;;;2.53;2.03;;;;;;;;;;5051049;28;20102;-64
2023/08/23 12:24:42;;;;;;;4.22;2.60;;;;;;;;;;5052965;28;20025;-62
2023/08/23 12:27:08;;;;;;;13.55;3.22;;;;;;;;;;5052279;28;20028;-62
2023/08/23 12:29:33;;;;;;;3.40;1.83;;;;;;;;;;5065596;28;20024;-62
2023/08/23 12:31:58;;;;;;;2.00;1.43;;;;;;;;;;5051166;28;20163;-62
2023/08/23 12:34:23;;;;;;;3.70;3.20;;;;;;;;;;5050310;28;20025;-62
2023/08/23 12:36:48;;;;;;;4.20;1.63;;;;;;;;;;5050936;28;20037;-61
2023/08/23 12:39:16;;;;;;;2.75;1.98;;;;;;;;;;5053187;28;20049;-62
2023/08/23 12:41:41;;;;;;;3.33;1.80;;;;;;;;;;5051438;28;20037;-62
2023/08/23 12:44:06;;;;;;;3.05;1.55;;;;;;;;;;5064464;28;20031;-62
2023/08/23 12:46:32;;;;;;;3.42;2.03;;;;;;;;;;5059412;28;20557;-62
2023/08/23 12:48:57;;;;;;;1.85;1.65;;;;;;;;;;5072141;28;20021;-62
2023/08/23 12:51:23;;;;;;;5.20;2.03;;;;;;;;;;5070418;28;20040;-62
2023/08/23 12:53:48;;;;;;;4.13;1.58;;;;;;;;;;5071840;28;20399;-63
2023/08/23 12:56:14;;;;;;;2.53;1.20;;;;;;;;;;5070256;28;20035;-61
2023/08/23 12:58:39;;;;;;;3.60;1.95;;;;;;;;;;5068542;28;20029;-62
2023/08/23 13:01:05;;;;;;;4.72;1.70;;;;;;;;;;5070126;28;20032;-62
2023/08/23 13:03:30;;;;;;;5.93;2.65;;;;;;;;;;5071264;28;20028;-61
2023/08/23 13:05:55;;;;;;;5.30;2.05;;;;;;;;;;5070482;28;20029;-62
2023/08/23 13:08:20;;;;;;;4.77;2.20;;;;;;;;;;5071705;28;20028;-62
2023/08/23 13:10:45;;;;;;;4.07;1.57;;;;;;;;;;5070015;28;20451;-62
2023/08/23 13:13:11;;;;;;;3.43;2.10;;;;;;;;;;5036294;28;20482;-62
2023/08/23 13:15:36;;;;;;;5.22;1.48;;;;;;;;;;5041520;28;20052;-61
2023/08/23 13:18:01;;;;;;;5.73;1.93;;;;;;;;;;5051171;28;20017;-61
2023/08/23 13:20:26;;;;;;;3.25;1.67;;;;;;;;;;5050158;28;20021;-60
2023/08/23 13:22:51;;;;;;;2.33;1.77;;;;;;;;;;5071188;28;20118;-62
2023/08/23 13:25:17;;;;;;;2.57;1.70;;;;;;;;;;5069064;28;20333;-61
2023/08/23 13:27:42;;;;;;;2.70;1.80;;;;;;;;;;5069144;28;20047;-61
2023/08/23 13:30:08;;;;;;;2.70;1.60;;;;;;;;;;5070820;28;20059;-62
2023/08/23 13:32:34;;;;;;;7.10;1.92;;;;;;;;;;5068267;28;20463;-62
2023/08/23 13:34:59;;;;;;;5.20;1.87;;;;;;;;;;5071142;28;20022;-61
2023/08/23 13:37:24;;;;;;;7.38;2.08;;;;;;;;;;5068964;28;20102;-62
2023/08/23 13:39:49;;;;;;;3.07;1.40;;;;;;;;;;5070547;28;20048;-61
2023/08/23 13:42:14;;;;;;;4.13;1.63;;;;;;;;;;5069104;28;20037;-62
2023/08/23 13:44:40;;;;;;;3.17;1.40;;;;;;;;;;5058908;28;20391;-61
2023/08/23 13:47:05;;;;;;;2.42;1.63;;;;;;;;;;5053258;28;20072;-61
2023/08/23 13:49:30;;;;;;;6.40;1.58;;;;;;;;;;5053039;28;20040;-60
2023/08/23 13:51:55;;;;;;;3.28;1.55;;;;;;;;;;5062519;28;20547;-60
2023/08/23 13:54:21;;;;;;;3.45;1.98;;;;;;;;;;5047307;28;20008;-60
2023/08/23 13:56:46;;;;;;;1.70;1.60;;;;;;;;;;5049462;28;20037;-61
2023/08/23 13:59:11;;;;;;;1.05;0.95;;;;;;;;;;5048224;28;20460;-60
2023/08/23 14:01:36;;;;;;;1.70;1.40;;;;;;;;;;5049325;28;20456;-60
2023/08/23 14:04:03;;;;;;;6.15;2.40;;;;;;;;;;5050734;28;20021;-60
2023/08/23 14:06:28;;;;;;;2.55;1.63;;;;;;;;;;5049204;28;20090;-60
2023/08/23 14:08:53;;;;;;;5.70;3.20;;;;;;;;;;5050021;28;20029;-60
2023/08/23 14:11:19;;;;;;;11.23;1.80;;;;;;;;;;5054647;28;20043;-61
2023/08/23 14:13:44;;;;;;;1.95;1.65;;;;;;;;;;5070751;28;20357;-60
2023/08/23 14:16:09;;;;;;;5.95;1.95;;;;;;;;;;5067978;28;20040;-60
2023/08/23 14:18:35;;;;;;;1.47;1.37;;;;;;;;;;5069895;28;20029;-60
2023/08/23 14:21:00;;;;;;;6.03;1.98;;;;;;;;;;5069132;28;20037;-61
2023/08/23 14:23:25;;;;;;;6.63;1.83;;;;;;;;;;5070084;28;20019;-60
2023/08/23 14:25:50;;;;;;;2.43;1.63;;;;;;;;;;5068749;28;20036;-60